createdAt,value
2022-12-29T00:00:11.134Z,19.7900
2022-12-29T00:01:11.443Z,19.8000
2022-12-29T00:02:13.848Z,19.8000
2022-12-29T00:03:16.422Z,19.7700
2022-12-29T00:04:16.615Z,19.7900
2022-12-29T00:05:19.093Z,19.7900
2022-12-29T00:06:21.519Z,19.7900
2022-12-29T00:07:21.914Z,19.7800
2022-12-29T00:08:24.302Z,19.7600
2022-12-29T00:09:26.778Z,19.7500
2022-12-29T00:10:27.138Z,19.7700
2022-12-29T00:11:29.586Z,19.7700
2022-12-29T00:12:32.068Z,19.7500
2022-12-29T00:13:32.408Z,19.7600
2022-12-29T00:14:34.888Z,19.7700
2022-12-29T00:15:37.448Z,19.7600
2022-12-29T00:16:37.726Z,19.7300
2022-12-29T00:17:40.132Z,19.7500
2022-12-29T00:18:42.588Z,19.7600
2022-12-29T00:19:42.937Z,19.7600
2022-12-29T00:20:45.532Z,19.7800
2022-12-29T00:21:47.895Z,19.7700
2022-12-29T00:22:48.232Z,19.7700
2022-12-29T00:23:50.661Z,19.7700
2022-12-29T00:24:53.088Z,19.7500
2022-12-29T00:25:53.543Z,19.7600
2022-12-29T00:26:55.892Z,19.7600
2022-12-29T00:28:04.801Z,19.7600
2022-12-29T00:28:58.697Z,19.7400
2022-12-29T00:30:01.180Z,19.7300
2022-12-29T00:31:03.780Z,19.7100
2022-12-29T00:32:06.024Z,19.7100
2022-12-29T00:33:06.326Z,19.7200
2022-12-29T00:34:08.806Z,19.7400
2022-12-29T00:35:11.276Z,19.7300
2022-12-29T00:36:11.630Z,19.7200
2022-12-29T00:37:14.054Z,19.7300
2022-12-29T00:38:16.490Z,19.7300
2022-12-29T00:39:16.741Z,19.7200
2022-12-29T00:40:19.220Z,19.7200
2022-12-29T00:41:21.668Z,19.7400
2022-12-29T00:42:24.079Z,19.7300
2022-12-29T00:43:24.386Z,19.7200
2022-12-29T00:44:26.852Z,19.7300
2022-12-29T00:45:29.231Z,19.7200
2022-12-29T00:46:29.713Z,19.7100
2022-12-29T00:47:31.868Z,19.7000
2022-12-29T00:48:34.283Z,19.7000
2022-12-29T00:49:36.637Z,19.7000
2022-12-29T00:50:36.891Z,19.7000
2022-12-29T00:51:39.412Z,19.7000
2022-12-29T00:52:41.691Z,19.7000
2022-12-29T00:53:44.162Z,19.7200
2022-12-29T00:54:46.516Z,19.7100
2022-12-29T00:55:48.902Z,19.7200
2022-12-29T00:56:51.359Z,19.7000
2022-12-29T00:57:51.571Z,19.7200
2022-12-29T00:58:53.978Z,19.7100
2022-12-29T00:59:56.381Z,19.6900
2022-12-29T01:00:58.796Z,19.6900
2022-12-29T01:02:01.284Z,19.7000
2022-12-29T01:03:01.554Z,19.7000
2022-12-29T01:04:04.646Z,19.7000
2022-12-29T01:05:06.039Z,19.6900
2022-12-29T01:06:08.415Z,19.6800
2022-12-29T01:07:08.675Z,19.6800
2022-12-29T01:08:11.035Z,19.6800
2022-12-29T01:09:13.400Z,19.6900
2022-12-29T01:10:15.750Z,19.6700
2022-12-29T01:11:16.032Z,19.7000
2022-12-29T01:12:16.404Z,19.6700
2022-12-29T01:13:18.865Z,19.6700
2022-12-29T01:14:21.358Z,19.6700
2022-12-29T01:15:21.701Z,19.6800
2022-12-29T01:16:24.190Z,19.6900
2022-12-29T01:17:26.708Z,19.6900
2022-12-29T01:18:26.982Z,19.7000
2022-12-29T01:19:29.473Z,19.6900
2022-12-29T01:20:31.947Z,19.6900
2022-12-29T01:21:32.269Z,19.6900
2022-12-29T01:22:34.753Z,19.6600
2022-12-29T01:23:37.229Z,19.6600
2022-12-29T01:24:37.581Z,19.6700
2022-12-29T01:25:40.046Z,19.6700
2022-12-29T01:26:42.521Z,19.6800
2022-12-29T01:27:42.876Z,19.6700
2022-12-29T01:28:45.254Z,19.6600
2022-12-29T01:29:47.666Z,19.6600
2022-12-29T01:30:47.920Z,19.6600
2022-12-29T01:31:50.399Z,19.6800
2022-12-29T01:32:50.690Z,19.6800
2022-12-29T01:33:53.143Z,19.6900
2022-12-29T01:34:53.449Z,19.6800
2022-12-29T01:35:55.942Z,19.6800
2022-12-29T01:36:56.269Z,19.6700
2022-12-29T01:37:58.775Z,19.6600
2022-12-29T01:39:01.248Z,19.6700
2022-12-29T01:40:01.667Z,19.6600
2022-12-29T01:41:04.095Z,19.6500
2022-12-29T01:42:06.596Z,19.6600
2022-12-29T01:43:06.968Z,19.6600
2022-12-29T01:44:09.437Z,19.6500
2022-12-29T01:45:11.901Z,19.6600
2022-12-29T01:46:12.283Z,19.6600
2022-12-29T01:47:14.645Z,19.6500
2022-12-29T01:48:17.231Z,19.6500
2022-12-29T01:49:17.428Z,19.6700
2022-12-29T01:50:19.933Z,19.6500
2022-12-29T01:51:22.357Z,19.6300
2022-12-29T01:52:22.676Z,19.6300
2022-12-29T01:53:25.206Z,19.6300
2022-12-29T01:54:27.666Z,19.6400
2022-12-29T01:55:27.997Z,19.6400
2022-12-29T01:56:30.425Z,19.6300
2022-12-29T01:57:32.843Z,19.6500
2022-12-29T01:58:35.383Z,19.6300
2022-12-29T01:59:35.614Z,19.6200
2022-12-29T02:00:38.170Z,19.6200
2022-12-29T02:01:40.666Z,19.6300
2022-12-29T02:02:41.063Z,19.6200
2022-12-29T02:03:43.354Z,19.6400
2022-12-29T02:04:45.707Z,19.6200
2022-12-29T02:05:45.986Z,19.6000
2022-12-29T02:06:48.450Z,19.6200
2022-12-29T02:07:50.881Z,19.6200
2022-12-29T02:08:53.373Z,19.6200
2022-12-29T02:09:53.650Z,19.6400
2022-12-29T02:10:56.175Z,19.6400
2022-12-29T02:11:58.636Z,19.6200
2022-12-29T02:12:58.987Z,19.6000
2022-12-29T02:14:03.759Z,19.6200
2022-12-29T02:15:03.983Z,19.5900
2022-12-29T02:16:04.355Z,19.6400
2022-12-29T02:17:06.784Z,19.6300
2022-12-29T02:18:09.323Z,19.6100
2022-12-29T02:19:11.877Z,19.6000
2022-12-29T02:20:14.328Z,19.5900
2022-12-29T02:21:14.666Z,19.6000
2022-12-29T02:22:17.133Z,19.5800
2022-12-29T02:23:19.559Z,19.5600
2022-12-29T02:24:19.926Z,19.5700
2022-12-29T02:25:22.378Z,19.5800
2022-12-29T02:26:24.849Z,19.6000
2022-12-29T02:27:25.063Z,19.5900
2022-12-29T02:28:27.553Z,19.6000
2022-12-29T02:29:30.085Z,19.5900
2022-12-29T02:30:30.394Z,19.5900
2022-12-29T02:31:32.947Z,19.5700
2022-12-29T02:32:35.395Z,19.5800
2022-12-29T02:33:35.719Z,19.5800
2022-12-29T02:34:38.238Z,19.5900
2022-12-29T02:35:40.704Z,19.5700
2022-12-29T02:36:40.991Z,19.5900
2022-12-29T02:37:43.426Z,19.6000
2022-12-29T02:38:45.863Z,19.6000
2022-12-29T02:39:48.323Z,19.5600
2022-12-29T02:40:48.598Z,19.5600
2022-12-29T02:41:51.074Z,19.5700
2022-12-29T02:42:53.541Z,19.5700
2022-12-29T02:43:53.801Z,19.5700
2022-12-29T02:44:56.406Z,19.5700
2022-12-29T02:45:58.805Z,19.5700
2022-12-29T02:46:59.121Z,19.5800
2022-12-29T02:48:01.633Z,19.5600
2022-12-29T02:49:04.149Z,19.5600
2022-12-29T02:50:04.680Z,19.5500
2022-12-29T02:51:06.989Z,19.5600
2022-12-29T02:52:09.467Z,19.5600
2022-12-29T02:53:09.817Z,19.5700
2022-12-29T02:54:12.306Z,19.5700
2022-12-29T02:55:14.810Z,19.5600
2022-12-29T02:56:15.142Z,19.5800
2022-12-29T02:57:18.405Z,19.5800
2022-12-29T02:58:20.185Z,19.5600
2022-12-29T02:59:20.496Z,19.5600
2022-12-29T03:00:23.043Z,19.5600
2022-12-29T03:01:23.560Z,19.5700
2022-12-29T03:02:25.993Z,19.5500
2022-12-29T03:03:28.346Z,19.5600
2022-12-29T03:04:28.642Z,19.5500
2022-12-29T03:05:31.130Z,19.5500
2022-12-29T03:06:33.550Z,19.5600
2022-12-29T03:07:33.880Z,19.5400
2022-12-29T03:08:36.366Z,19.5500
2022-12-29T03:09:38.846Z,19.5600
2022-12-29T03:10:39.188Z,19.5700
2022-12-29T03:11:41.613Z,19.5700
2022-12-29T03:12:44.098Z,19.5600
2022-12-29T03:13:44.371Z,19.5700
2022-12-29T03:14:46.816Z,19.5700
2022-12-29T03:15:49.310Z,19.5700
2022-12-29T03:16:51.803Z,19.5600
2022-12-29T03:17:52.025Z,19.5400
2022-12-29T03:18:54.452Z,19.5600
2022-12-29T03:19:56.808Z,19.5500
2022-12-29T03:20:59.409Z,19.5400
2022-12-29T03:21:59.377Z,19.5400
2022-12-29T03:23:01.745Z,19.5400
2022-12-29T03:24:04.130Z,19.5300
2022-12-29T03:25:06.502Z,19.5600
2022-12-29T03:26:06.764Z,19.5400
2022-12-29T03:27:09.098Z,19.5700
2022-12-29T03:28:11.415Z,19.5500
2022-12-29T03:29:13.668Z,19.5600
2022-12-29T03:30:13.942Z,19.5600
2022-12-29T03:31:14.353Z,19.5500
2022-12-29T03:32:16.714Z,19.5500
2022-12-29T03:33:19.172Z,19.5600
2022-12-29T03:34:19.429Z,19.5500
2022-12-29T03:35:21.851Z,19.5600
2022-12-29T03:36:24.375Z,19.5700
2022-12-29T03:37:26.801Z,19.5500
2022-12-29T03:38:27.078Z,19.5500
2022-12-29T03:39:29.502Z,19.5500
2022-12-29T03:40:31.973Z,19.5400
2022-12-29T03:41:32.418Z,19.5400
2022-12-29T03:42:34.775Z,19.5400
2022-12-29T03:43:37.234Z,19.5700
2022-12-29T03:44:37.490Z,19.5700
2022-12-29T03:45:39.962Z,19.5400
2022-12-29T03:46:42.565Z,19.5500
2022-12-29T03:47:42.746Z,19.5600
2022-12-29T03:48:45.203Z,19.5600
2022-12-29T03:49:47.668Z,19.5500
2022-12-29T03:50:47.946Z,19.5400
2022-12-29T03:51:51.996Z,19.5300
2022-12-29T03:52:52.726Z,19.5400
2022-12-29T03:53:55.170Z,19.5600
2022-12-29T03:54:55.449Z,19.5500
2022-12-29T03:55:57.893Z,19.5300
2022-12-29T03:57:00.458Z,19.5500
2022-12-29T03:58:02.769Z,19.5400
2022-12-29T03:59:03.054Z,19.5400
2022-12-29T04:00:05.432Z,19.5300
2022-12-29T04:01:07.879Z,19.5500
2022-12-29T04:02:08.416Z,19.5400
2022-12-29T04:03:10.593Z,19.5500
2022-12-29T04:04:12.937Z,19.5600
2022-12-29T04:05:15.368Z,19.5400
2022-12-29T04:06:15.653Z,19.5500
2022-12-29T04:07:18.157Z,19.5400
2022-12-29T04:08:20.525Z,19.5400
2022-12-29T04:09:23.003Z,19.5300
2022-12-29T04:10:23.342Z,19.5500
2022-12-29T04:11:31.282Z,19.5700
2022-12-29T04:12:28.404Z,19.5400
2022-12-29T04:13:28.544Z,19.5500
2022-12-29T04:14:30.962Z,19.5300
2022-12-29T04:15:33.473Z,19.5300
2022-12-29T04:16:33.707Z,19.5200
2022-12-29T04:17:36.238Z,19.5000
2022-12-29T04:18:38.677Z,19.4900
2022-12-29T04:19:39.009Z,19.5100
2022-12-29T04:20:41.493Z,19.5100
2022-12-29T04:21:43.952Z,19.5000
2022-12-29T04:22:44.294Z,19.5000
2022-12-29T04:23:46.775Z,19.5200
2022-12-29T04:24:49.221Z,19.5200
2022-12-29T04:25:49.555Z,19.5200
2022-12-29T04:26:52.029Z,19.5200
2022-12-29T04:27:54.479Z,19.5200
2022-12-29T04:28:54.717Z,19.5200
2022-12-29T04:29:57.191Z,19.5200
2022-12-29T04:30:59.585Z,19.5100
2022-12-29T04:31:59.856Z,19.5200
2022-12-29T04:33:02.347Z,19.5100
2022-12-29T04:34:04.609Z,19.5100
2022-12-29T04:35:07.024Z,19.5100
2022-12-29T04:36:07.563Z,19.5200
2022-12-29T04:37:09.712Z,19.5100
2022-12-29T04:38:12.108Z,19.4900
2022-12-29T04:39:14.387Z,19.4800
2022-12-29T04:40:16.797Z,19.4800
2022-12-29T04:41:16.967Z,19.4900
2022-12-29T04:42:19.298Z,19.4800
2022-12-29T04:43:21.752Z,19.4700
2022-12-29T04:44:23.970Z,19.4900
2022-12-29T04:45:26.379Z,19.4900
2022-12-29T04:46:26.627Z,19.5000
2022-12-29T04:47:28.916Z,19.5200
2022-12-29T04:48:31.500Z,19.5000
2022-12-29T04:49:33.726Z,19.4900
2022-12-29T04:50:34.045Z,19.5000
2022-12-29T04:51:36.464Z,19.4900
2022-12-29T04:52:38.932Z,19.4800
2022-12-29T04:53:39.370Z,19.4900
2022-12-29T04:54:41.632Z,19.4800
2022-12-29T04:55:44.031Z,19.4700
2022-12-29T04:56:46.501Z,19.4900
2022-12-29T04:57:46.814Z,19.4800
2022-12-29T04:58:49.456Z,19.4800
2022-12-29T04:59:51.749Z,19.4700
2022-12-29T05:00:54.216Z,19.4800
2022-12-29T05:01:54.615Z,19.5000
2022-12-29T05:02:57.178Z,19.4900
2022-12-29T05:03:57.341Z,19.5000
2022-12-29T05:04:59.706Z,19.4900
2022-12-29T05:06:02.172Z,19.5000
2022-12-29T05:07:02.535Z,19.4800
2022-12-29T05:08:04.982Z,19.4900
2022-12-29T05:09:07.656Z,19.4800
2022-12-29T05:10:07.812Z,19.4700
2022-12-29T05:11:10.262Z,19.4600
2022-12-29T05:12:12.741Z,19.4800
2022-12-29T05:13:13.067Z,19.4700
2022-12-29T05:14:15.750Z,19.4700
2022-12-29T05:15:18.055Z,19.4700
2022-12-29T05:16:18.559Z,19.4700
2022-12-29T05:17:20.919Z,19.4800
2022-12-29T05:18:23.400Z,19.4800
2022-12-29T05:19:23.935Z,19.4500
2022-12-29T05:20:26.236Z,19.4400
2022-12-29T05:21:28.769Z,19.4800
2022-12-29T05:22:29.075Z,19.4700
2022-12-29T05:23:31.579Z,19.4700
2022-12-29T05:24:34.140Z,19.4900
2022-12-29T05:25:34.435Z,19.5000
2022-12-29T05:26:36.939Z,19.4800
2022-12-29T05:27:39.477Z,19.4700
2022-12-29T05:28:39.830Z,19.4700
2022-12-29T05:29:42.328Z,19.4400
2022-12-29T05:30:44.815Z,19.4600
2022-12-29T05:31:45.259Z,19.4700
2022-12-29T05:32:47.575Z,19.4600
2022-12-29T05:33:50.062Z,19.4600
2022-12-29T05:34:50.425Z,19.4500
2022-12-29T05:35:52.889Z,19.4500
2022-12-29T05:36:55.358Z,19.4300
2022-12-29T05:37:55.715Z,19.4300
2022-12-29T05:38:58.123Z,19.4400
2022-12-29T05:40:00.547Z,19.4300
2022-12-29T05:41:00.744Z,19.4500
2022-12-29T05:42:03.148Z,19.4600
2022-12-29T05:43:05.498Z,19.4700
2022-12-29T05:44:07.925Z,19.4500
2022-12-29T05:45:10.343Z,19.4700
2022-12-29T05:46:12.703Z,19.4600
2022-12-29T05:47:15.162Z,19.4500
2022-12-29T05:48:17.488Z,19.4500
2022-12-29T05:49:17.775Z,19.4400
2022-12-29T05:50:20.294Z,19.4300
2022-12-29T05:51:22.779Z,19.4200
2022-12-29T05:52:23.182Z,19.4400
2022-12-29T05:53:25.649Z,19.4300
2022-12-29T05:54:28.151Z,19.4200
2022-12-29T05:55:28.530Z,19.4300
2022-12-29T05:56:30.981Z,19.4300
2022-12-29T05:57:33.462Z,19.4200
2022-12-29T05:58:33.840Z,19.4200
2022-12-29T05:59:36.320Z,19.4200
2022-12-29T06:00:36.708Z,19.4000
2022-12-29T06:01:39.360Z,19.4000
2022-12-29T06:02:41.879Z,19.4000
2022-12-29T06:03:48.004Z,19.4100
2022-12-29T06:04:44.538Z,19.4000
2022-12-29T06:05:47.006Z,19.4100
2022-12-29T06:06:47.321Z,19.4200
2022-12-29T06:07:49.824Z,19.4000
2022-12-29T06:08:52.332Z,19.4000
2022-12-29T06:09:52.673Z,19.3900
2022-12-29T06:10:55.223Z,19.4200
2022-12-29T06:11:57.681Z,19.4200
2022-12-29T06:12:58.030Z,19.4100
2022-12-29T06:14:00.497Z,19.4100
2022-12-29T06:15:02.985Z,19.4100
2022-12-29T06:16:03.495Z,19.3900
2022-12-29T06:17:05.766Z,19.4000
2022-12-29T06:18:08.228Z,19.3900
2022-12-29T06:19:08.501Z,19.4000
2022-12-29T06:20:10.880Z,19.4100
2022-12-29T06:21:13.320Z,19.3800
2022-12-29T06:22:15.678Z,19.3900
2022-12-29T06:23:15.960Z,19.3900
2022-12-29T06:24:18.385Z,19.3800
2022-12-29T06:25:20.839Z,19.3800
2022-12-29T06:26:23.299Z,19.3900
2022-12-29T06:27:25.657Z,19.4000
2022-12-29T06:28:28.028Z,19.4100
2022-12-29T06:29:30.435Z,19.3900
2022-12-29T06:30:30.647Z,19.3800
2022-12-29T06:31:33.530Z,19.3800
2022-12-29T06:32:35.489Z,19.3900
2022-12-29T06:33:37.943Z,19.3900
2022-12-29T06:34:38.183Z,19.3900
2022-12-29T06:35:40.615Z,19.3900
2022-12-29T06:36:43.072Z,19.4000
2022-12-29T06:37:43.325Z,19.3800
2022-12-29T06:38:45.780Z,19.3700
2022-12-29T06:39:48.221Z,19.3800
2022-12-29T06:40:50.651Z,19.3800
2022-12-29T06:41:50.980Z,19.3800
2022-12-29T06:42:53.352Z,19.3800
2022-12-29T06:43:55.785Z,19.4000
2022-12-29T06:44:56.069Z,19.3900
2022-12-29T06:45:58.539Z,19.3800
2022-12-29T06:47:00.948Z,19.3400
2022-12-29T06:48:03.239Z,19.3600
2022-12-29T06:49:03.555Z,19.3600
2022-12-29T06:50:05.961Z,19.3500
2022-12-29T06:51:08.409Z,19.3600
2022-12-29T06:52:13.136Z,19.3800
2022-12-29T06:53:11.130Z,19.3700
2022-12-29T06:54:13.550Z,19.3700
2022-12-29T06:55:15.954Z,19.3700
2022-12-29T06:56:18.379Z,19.3600
2022-12-29T06:57:18.697Z,19.3600
2022-12-29T06:58:21.099Z,19.3500
2022-12-29T06:59:22.340Z,19.2900
2022-12-29T07:00:23.280Z,19.2100
2022-12-29T07:01:24.045Z,19.2000
2022-12-29T07:02:26.784Z,19.2500
2022-12-29T07:03:28.899Z,19.3200
2022-12-29T07:04:29.141Z,19.3400
2022-12-29T07:05:31.527Z,19.3500
2022-12-29T07:06:33.982Z,19.3700
2022-12-29T07:07:34.324Z,19.3800
2022-12-29T07:08:36.738Z,19.3800
2022-12-29T07:09:39.221Z,19.3500
2022-12-29T07:10:41.647Z,19.3600
2022-12-29T07:11:41.960Z,19.3400
2022-12-29T07:12:44.419Z,19.3400
2022-12-29T07:13:46.872Z,19.3400
2022-12-29T07:14:47.171Z,19.3500
2022-12-29T07:15:49.596Z,19.3500
2022-12-29T07:16:52.040Z,19.3400
2022-12-29T07:17:54.452Z,19.3600
2022-12-29T07:18:54.750Z,19.3700
2022-12-29T07:19:57.297Z,19.3700
2022-12-29T07:20:59.709Z,19.3600
2022-12-29T07:22:00.028Z,19.3800
2022-12-29T07:23:02.504Z,19.3900
2022-12-29T07:24:04.975Z,19.3800
2022-12-29T07:25:05.296Z,19.3900
2022-12-29T07:26:07.782Z,19.3900
2022-12-29T07:27:10.229Z,19.3900
2022-12-29T07:28:12.714Z,19.3700
2022-12-29T07:29:15.162Z,19.3500
2022-12-29T07:30:15.521Z,19.3600
2022-12-29T07:31:18.166Z,19.3500
2022-12-29T07:32:20.703Z,19.3500
2022-12-29T07:33:20.920Z,19.3500
2022-12-29T07:34:23.371Z,19.3400
2022-12-29T07:35:25.925Z,19.3500
2022-12-29T07:36:32.345Z,19.3600
2022-12-29T07:37:28.741Z,19.3400
2022-12-29T07:38:31.386Z,19.3600
2022-12-29T07:39:31.574Z,19.3600
2022-12-29T07:40:34.096Z,19.3600
2022-12-29T07:41:36.584Z,19.3500
2022-12-29T07:42:36.870Z,19.3600
2022-12-29T07:43:39.390Z,19.3700
2022-12-29T07:44:41.819Z,19.3700
2022-12-29T07:45:42.128Z,19.3700
2022-12-29T07:46:54.112Z,19.3700
2022-12-29T07:47:47.044Z,19.3400
2022-12-29T07:48:47.428Z,19.3700
2022-12-29T07:49:49.905Z,19.3700
2022-12-29T07:50:52.453Z,19.3600
2022-12-29T07:51:52.786Z,19.3700
2022-12-29T07:52:55.300Z,19.3600
2022-12-29T07:53:57.760Z,19.3700
2022-12-29T07:54:58.009Z,19.3700
2022-12-29T07:56:00.452Z,19.3500
2022-12-29T07:57:02.890Z,19.3500
2022-12-29T07:58:03.135Z,19.3700
2022-12-29T07:59:05.569Z,19.3700
2022-12-29T08:00:07.953Z,19.3600
2022-12-29T08:01:10.463Z,19.3600
2022-12-29T08:02:10.744Z,19.3400
2022-12-29T08:03:13.094Z,19.3300
2022-12-29T08:04:15.617Z,19.3400
2022-12-29T08:05:17.935Z,19.3400
2022-12-29T08:06:18.162Z,19.3400
2022-12-29T08:07:18.444Z,19.3400
2022-12-29T08:08:20.896Z,19.3500
2022-12-29T08:09:24.500Z,19.3600
2022-12-29T08:10:25.902Z,19.3400
2022-12-29T08:11:28.270Z,19.3600
2022-12-29T08:12:28.619Z,19.3700
2022-12-29T08:13:31.092Z,19.3800
2022-12-29T08:14:33.602Z,19.3900
2022-12-29T08:15:33.969Z,19.4000
2022-12-29T08:16:36.478Z,19.3900
2022-12-29T08:17:38.868Z,19.3700
2022-12-29T08:18:39.162Z,19.3800
2022-12-29T08:19:41.635Z,19.3900
2022-12-29T08:20:44.059Z,19.3800
2022-12-29T08:21:44.407Z,19.3900
2022-12-29T08:22:46.846Z,19.3900
2022-12-29T08:23:49.328Z,19.4100
2022-12-29T08:24:49.666Z,19.3900
2022-12-29T08:25:52.054Z,19.3900
2022-12-29T08:26:54.528Z,19.4100
2022-12-29T08:27:56.965Z,19.4000
2022-12-29T08:28:57.248Z,19.4000
2022-12-29T08:29:59.687Z,19.3900
2022-12-29T08:31:02.152Z,19.3800
2022-12-29T08:32:04.529Z,19.4000
2022-12-29T08:33:04.790Z,19.4000
2022-12-29T08:34:07.279Z,19.4100
2022-12-29T08:35:09.802Z,19.4300
2022-12-29T08:36:10.081Z,19.4400
2022-12-29T08:37:12.599Z,19.4300
2022-12-29T08:38:15.049Z,19.4300
2022-12-29T08:39:15.371Z,19.4300
2022-12-29T08:40:17.896Z,19.4000
2022-12-29T08:41:20.343Z,19.4100
2022-12-29T08:42:20.680Z,19.4300
2022-12-29T08:43:23.154Z,19.4200
2022-12-29T08:44:25.639Z,19.4300
2022-12-29T08:45:26.026Z,19.4400
2022-12-29T08:46:28.528Z,19.4400
2022-12-29T08:47:30.897Z,19.4300
2022-12-29T08:48:31.245Z,19.4300
2022-12-29T08:49:33.730Z,19.4100
2022-12-29T08:50:36.227Z,19.4400
2022-12-29T08:51:38.598Z,19.4400
2022-12-29T08:52:41.123Z,19.4500
2022-12-29T08:53:41.468Z,19.4400
2022-12-29T08:54:43.877Z,19.4500
2022-12-29T08:55:46.356Z,19.4600
2022-12-29T08:56:48.805Z,19.4500
2022-12-29T08:57:49.000Z,19.4700
2022-12-29T08:58:51.457Z,19.4800
2022-12-29T08:59:53.925Z,19.4700
2022-12-29T09:00:54.276Z,19.4700
2022-12-29T09:01:56.809Z,19.4800
2022-12-29T09:02:59.378Z,19.4800
2022-12-29T09:04:14.728Z,19.4700
2022-12-29T09:05:01.933Z,19.4800
2022-12-29T09:06:04.301Z,19.5000
2022-12-29T09:07:06.709Z,19.4900
2022-12-29T09:08:07.033Z,19.5300
2022-12-29T09:09:09.509Z,19.5200
2022-12-29T09:10:11.908Z,19.5300
2022-12-29T09:11:12.249Z,19.5400
2022-12-29T09:12:14.641Z,19.5600
2022-12-29T09:13:17.082Z,19.5900
2022-12-29T09:14:17.363Z,19.6000
2022-12-29T09:15:19.810Z,19.6100
2022-12-29T09:16:22.384Z,19.6200
2022-12-29T09:17:24.703Z,19.6500
2022-12-29T09:18:24.974Z,19.6500
2022-12-29T09:19:27.400Z,19.6600
2022-12-29T09:20:29.831Z,19.6900
2022-12-29T09:21:32.328Z,19.6900
2022-12-29T09:22:32.435Z,19.6900
2022-12-29T09:23:34.839Z,19.7200
2022-12-29T09:24:37.203Z,19.7200
2022-12-29T09:25:39.576Z,19.7400
2022-12-29T09:26:46.698Z,19.7400
2022-12-29T09:27:42.191Z,19.7500
2022-12-29T09:28:44.603Z,19.7600
2022-12-29T09:29:47.038Z,19.7900
2022-12-29T09:30:47.298Z,19.8000
2022-12-29T09:31:49.844Z,19.8100
2022-12-29T09:32:55.268Z,19.8100
2022-12-29T09:33:54.561Z,19.7900
2022-12-29T09:34:56.976Z,19.7500
2022-12-29T09:35:59.424Z,19.7500
2022-12-29T09:36:59.625Z,19.7400
2022-12-29T09:38:01.999Z,19.7500
2022-12-29T09:39:04.343Z,19.7400
2022-12-29T09:40:06.699Z,19.7300
2022-12-29T09:41:09.092Z,19.7400
2022-12-29T09:42:09.467Z,19.7300
2022-12-29T09:43:11.739Z,19.7200
2022-12-29T09:44:14.152Z,19.7300
2022-12-29T09:45:16.479Z,19.7300
2022-12-29T09:46:16.707Z,19.7300
2022-12-29T09:47:18.951Z,19.7500
2022-12-29T09:48:21.239Z,19.7400
2022-12-29T09:49:23.647Z,19.7400
2022-12-29T09:50:26.008Z,19.7400
2022-12-29T09:51:26.190Z,19.7500
2022-12-29T09:52:28.716Z,19.7500
2022-12-29T09:53:30.923Z,19.7500
2022-12-29T09:54:33.321Z,19.7600
2022-12-29T09:55:35.610Z,19.7700
2022-12-29T09:56:35.844Z,19.7600
2022-12-29T09:57:38.287Z,19.7600
2022-12-29T09:58:40.635Z,19.7700
2022-12-29T09:59:43.001Z,19.7600
2022-12-29T10:00:49.859Z,19.7600
2022-12-29T10:01:45.811Z,19.7400
2022-12-29T10:02:48.258Z,19.7600
2022-12-29T10:03:50.335Z,19.7600
2022-12-29T10:04:52.719Z,19.7700
2022-12-29T10:05:52.907Z,19.7700
2022-12-29T10:07:55.532Z,19.7500
2022-12-29T10:08:57.884Z,19.7400
2022-12-29T10:10:00.256Z,19.7600
2022-12-29T10:11:02.624Z,19.7600
2022-12-29T10:12:04.981Z,19.7700
2022-12-29T10:13:05.335Z,19.7800
2022-12-29T10:14:12.227Z,19.7900
2022-12-29T10:15:09.929Z,19.7700
2022-12-29T10:16:12.377Z,19.7900
2022-12-29T10:17:14.699Z,19.7900
2022-12-29T10:18:14.933Z,19.8100
2022-12-29T10:19:17.290Z,19.8100
2022-12-29T10:20:19.683Z,19.8600
2022-12-29T10:21:22.068Z,19.8700
2022-12-29T10:22:22.275Z,19.8600
2022-12-29T10:23:24.707Z,19.8600
2022-12-29T10:24:27.026Z,19.8800
2022-12-29T10:25:32.902Z,19.8800
2022-12-29T10:26:29.617Z,19.8700
2022-12-29T10:27:31.972Z,19.8800
2022-12-29T10:28:34.444Z,19.9000
2022-12-29T10:29:36.692Z,19.9400
2022-12-29T10:30:39.055Z,19.9600
2022-12-29T10:31:39.301Z,19.9900
2022-12-29T10:32:41.659Z,20.0000
2022-12-29T10:33:44.067Z,19.9900
2022-12-29T10:34:46.417Z,20.0200
2022-12-29T10:35:48.780Z,20.0700
2022-12-29T10:36:49.010Z,20.0900
2022-12-29T10:37:51.357Z,20.0800
2022-12-29T10:38:53.783Z,20.0400
2022-12-29T10:39:56.101Z,20.0300
2022-12-29T10:40:56.341Z,20.0200
2022-12-29T10:41:58.727Z,20.0200
2022-12-29T10:43:01.124Z,20.0200
2022-12-29T10:44:03.551Z,20.0300
2022-12-29T10:45:05.904Z,20.0300
2022-12-29T10:46:06.181Z,20.0300
2022-12-29T10:47:08.480Z,20.0300
2022-12-29T10:48:10.882Z,20.0300
2022-12-29T10:49:18.033Z,20.0200
2022-12-29T10:50:15.616Z,20.0200
2022-12-29T10:51:17.989Z,20.0300
2022-12-29T10:52:20.389Z,20.0400
2022-12-29T10:53:20.648Z,20.0400
2022-12-29T10:54:23.085Z,20.0500
2022-12-29T10:55:25.465Z,20.0400
2022-12-29T10:56:27.864Z,20.0600
2022-12-29T10:57:28.111Z,20.0600
2022-12-29T10:58:30.554Z,20.0500
2022-12-29T10:59:32.995Z,20.0600
2022-12-29T11:00:35.495Z,20.0700
2022-12-29T11:01:35.759Z,20.0700
2022-12-29T11:02:38.057Z,20.0600
2022-12-29T11:03:40.323Z,20.0700
2022-12-29T11:04:42.856Z,20.0600
2022-12-29T11:05:42.979Z,20.0700
2022-12-29T11:06:45.384Z,20.0800
2022-12-29T11:07:47.744Z,20.0800
2022-12-29T11:08:50.129Z,20.0700
2022-12-29T11:09:50.390Z,20.0900
2022-12-29T11:10:52.679Z,20.0700
2022-12-29T11:11:55.050Z,20.0500
2022-12-29T11:12:57.386Z,20.0500
2022-12-29T11:13:59.731Z,20.0500
2022-12-29T11:14:59.962Z,20.0300
2022-12-29T11:16:02.338Z,20.0300
2022-12-29T11:17:04.652Z,20.0400
2022-12-29T11:18:07.016Z,20.0400
2022-12-29T11:19:09.413Z,20.0400
2022-12-29T11:20:09.711Z,20.0400
2022-12-29T11:21:12.087Z,20.0500
2022-12-29T11:22:14.528Z,20.0800
2022-12-29T11:23:16.912Z,20.0800
2022-12-29T11:24:17.173Z,20.0800
2022-12-29T11:25:19.603Z,20.0900
2022-12-29T11:26:22.012Z,20.0800
2022-12-29T11:27:22.284Z,20.0900
2022-12-29T11:28:24.610Z,20.0900
2022-12-29T11:29:27.009Z,20.0900
2022-12-29T11:30:29.444Z,20.1000
2022-12-29T11:31:29.764Z,20.0800
2022-12-29T11:32:32.060Z,20.1000
2022-12-29T11:33:34.449Z,20.1100
2022-12-29T11:34:36.852Z,20.1100
2022-12-29T11:35:37.065Z,20.1100
2022-12-29T11:36:39.427Z,20.0800
2022-12-29T11:37:41.882Z,20.0700
2022-12-29T11:38:44.220Z,20.0700
2022-12-29T11:39:44.465Z,20.0800
2022-12-29T11:40:46.961Z,20.0800
2022-12-29T11:41:49.232Z,20.0700
2022-12-29T11:42:51.675Z,20.0600
2022-12-29T11:43:51.909Z,20.0700
2022-12-29T11:44:54.341Z,20.0700
2022-12-29T11:45:54.837Z,20.0600
2022-12-29T11:46:57.066Z,20.0600
2022-12-29T11:47:57.340Z,20.0500
2022-12-29T11:48:59.813Z,20.0500
2022-12-29T11:50:02.273Z,20.0500
2022-12-29T11:51:02.691Z,20.0600
2022-12-29T11:52:04.967Z,20.0500
2022-12-29T11:53:07.417Z,20.0400
2022-12-29T11:54:09.851Z,20.0300
2022-12-29T11:55:10.132Z,20.0200
2022-12-29T11:56:12.698Z,20.0000
2022-12-29T11:57:15.027Z,20.0100
2022-12-29T11:58:15.334Z,20.0000
2022-12-29T11:59:17.782Z,20.0100
2022-12-29T12:00:20.204Z,20.0300
2022-12-29T12:01:22.711Z,20.0300
2022-12-29T12:02:23.093Z,20.0200
2022-12-29T12:03:25.496Z,20.0100
2022-12-29T12:04:27.829Z,20.0100
2022-12-29T12:05:28.169Z,20.0300
2022-12-29T12:06:30.504Z,20.0300
2022-12-29T12:07:32.938Z,20.0400
2022-12-29T12:08:33.237Z,20.0400
2022-12-29T12:09:35.637Z,20.0400
2022-12-29T12:10:38.035Z,20.0300
2022-12-29T12:11:40.480Z,20.0400
2022-12-29T12:12:40.671Z,20.0300
2022-12-29T12:13:43.157Z,20.0300
2022-12-29T12:14:45.531Z,20.0300
2022-12-29T12:15:52.685Z,20.0400
2022-12-29T12:16:48.287Z,20.0000
2022-12-29T12:17:50.690Z,20.0200
2022-12-29T12:18:53.118Z,20.0100
2022-12-29T12:19:53.404Z,20.0200
2022-12-29T12:20:55.813Z,20.0400
2022-12-29T12:21:58.266Z,20.0500
2022-12-29T12:23:01.599Z,20.0600
2022-12-29T12:24:00.924Z,20.0600
2022-12-29T12:25:03.283Z,20.0400
2022-12-29T12:26:05.660Z,20.0500
2022-12-29T12:27:08.046Z,20.0500
2022-12-29T12:28:08.222Z,20.0600